sensor_id;sensor_type;location;lat;lon;timestamp;P1;durP1;ratioP1;P2;durP2;ratioP2
7539;SDS011;3811;49.006;12.076;2023-08-07T00:01:29;1.93;;;1.03;;
7539;SDS011;3811;49.006;12.076;2023-08-07T00:03:56;1.20;;;1.03;;
7539;SDS011;3811;49.006;12.076;2023-08-07T00:06:23;1.33;;;0.90;;
7539;SDS011;3811;49.006;12.076;2023-08-07T00:08:52;1.00;;;0.90;;
7539;SDS011;3811;49.006;12.076;2023-08-07T00:11:19;0.77;;;0.77;;
7539;SDS011;3811;49.006;12.076;2023-08-07T00:13:46;1.10;;;1.10;;
7539;SDS011;3811;49.006;12.076;2023-08-07T00:16:13;1.47;;;0.90;;
7539;SDS011;3811;49.006;12.076;2023-08-07T00:18:40;0.93;;;0.93;;
7539;SDS011;3811;49.006;12.076;2023-08-07T00:21:07;1.33;;;0.97;;
7539;SDS011;3811;49.006;12.076;2023-08-07T00:23:34;0.70;;;0.70;;
7539;SDS011;3811;49.006;12.076;2023-08-07T00:26:02;1.60;;;0.90;;
7539;SDS011;3811;49.006;12.076;2023-08-07T00:28:30;0.80;;;0.80;;
7539;SDS011;3811;49.006;12.076;2023-08-07T00:30:57;0.67;;;0.67;;
7539;SDS011;3811;49.006;12.076;2023-08-07T00:33:24;0.83;;;0.80;;
7539;SDS011;3811;49.006;12.076;2023-08-07T00:35:51;0.70;;;0.70;;
7539;SDS011;3811;49.006;12.076;2023-08-07T00:38:18;0.73;;;0.73;;
7539;SDS011;3811;49.006;12.076;2023-08-07T00:40:46;0.80;;;0.80;;
7539;SDS011;3811;49.006;12.076;2023-08-07T00:43:14;1.17;;;0.90;;
7539;SDS011;3811;49.006;12.076;2023-08-07T00:45:43;0.60;;;0.60;;
7539;SDS011;3811;49.006;12.076;2023-08-07T00:48:12;0.73;;;0.73;;
7539;SDS011;3811;49.006;12.076;2023-08-07T00:50:40;0.70;;;0.70;;
7539;SDS011;3811;49.006;12.076;2023-08-07T00:53:09;0.80;;;0.80;;
7539;SDS011;3811;49.006;12.076;2023-08-07T00:55:37;0.70;;;0.70;;
7539;SDS011;3811;49.006;12.076;2023-08-07T00:58:04;3.80;;;0.60;;
7539;SDS011;3811;49.006;12.076;2023-08-07T01:00:32;0.70;;;0.70;;
7539;SDS011;3811;49.006;12.076;2023-08-07T01:03:00;0.67;;;0.67;;
7539;SDS011;3811;49.006;12.076;2023-08-07T01:05:28;0.50;;;0.50;;
7539;SDS011;3811;49.006;12.076;2023-08-07T01:07:55;0.60;;;0.60;;
7539;SDS011;3811;49.006;12.076;2023-08-07T01:10:25;0.50;;;0.50;;
7539;SDS011;3811;49.006;12.076;2023-08-07T01:13:00;1.27;;;0.60;;
7539;SDS011;3811;49.006;12.076;2023-08-07T01:15:36;0.50;;;0.50;;
7539;SDS011;3811;49.006;12.076;2023-08-07T01:18:04;0.50;;;0.50;;
7539;SDS011;3811;49.006;12.076;2023-08-07T01:20:34;0.70;;;0.70;;
7539;SDS011;3811;49.006;12.076;2023-08-07T01:23:02;0.60;;;0.60;;
7539;SDS011;3811;49.006;12.076;2023-08-07T01:25:30;0.63;;;0.63;;
7539;SDS011;3811;49.006;12.076;2023-08-07T01:28:00;0.90;;;0.90;;
7539;SDS011;3811;49.006;12.076;2023-08-07T01:30:33;0.70;;;0.70;;
7539;SDS011;3811;49.006;12.076;2023-08-07T01:33:04;0.63;;;0.60;;
7539;SDS011;3811;49.006;12.076;2023-08-07T01:35:39;0.60;;;0.60;;
7539;SDS011;3811;49.006;12.076;2023-08-07T01:38:10;1.10;;;0.50;;
7539;SDS011;3811;49.006;12.076;2023-08-07T01:40:39;0.60;;;0.60;;
7539;SDS011;3811;49.006;12.076;2023-08-07T01:43:08;0.40;;;0.40;;
7539;SDS011;3811;49.006;12.076;2023-08-07T01:45:35;0.63;;;0.63;;
7539;SDS011;3811;49.006;12.076;2023-08-07T01:48:02;0.50;;;0.50;;
7539;SDS011;3811;49.006;12.076;2023-08-07T01:50:30;0.73;;;0.50;;
7539;SDS011;3811;49.006;12.076;2023-08-07T01:52:57;0.50;;;0.50;;
7539;SDS011;3811;49.006;12.076;2023-08-07T01:55:25;0.60;;;0.60;;
7539;SDS011;3811;49.006;12.076;2023-08-07T01:57:53;0.67;;;0.67;;
7539;SDS011;3811;49.006;12.076;2023-08-07T02:00:20;0.50;;;0.50;;
7539;SDS011;3811;49.006;12.076;2023-08-07T02:02:48;0.50;;;0.50;;
7539;SDS011;3811;49.006;12.076;2023-08-07T02:05:15;1.80;;;0.60;;
7539;SDS011;3811;49.006;12.076;2023-08-07T02:07:44;0.50;;;0.50;;
7539;SDS011;3811;49.006;12.076;2023-08-07T02:10:11;0.40;;;0.40;;
7539;SDS011;3811;49.006;12.076;2023-08-07T02:12:39;0.63;;;0.63;;
7539;SDS011;3811;49.006;12.076;2023-08-07T02:15:07;0.73;;;0.43;;
7539;SDS011;3811;49.006;12.076;2023-08-07T02:17:34;0.40;;;0.40;;
7539;SDS011;3811;49.006;12.076;2023-08-07T02:20:04;1.10;;;0.70;;
7539;SDS011;3811;49.006;12.076;2023-08-07T02:22:32;0.97;;;0.47;;
7539;SDS011;3811;49.006;12.076;2023-08-07T02:24:58;0.60;;;0.50;;
7539;SDS011;3811;49.006;12.076;2023-08-07T02:27:26;0.50;;;0.50;;
7539;SDS011;3811;49.006;12.076;2023-08-07T02:29:54;0.57;;;0.57;;
7539;SDS011;3811;49.006;12.076;2023-08-07T02:32:22;0.57;;;0.57;;
7539;SDS011;3811;49.006;12.076;2023-08-07T02:34:53;0.60;;;0.60;;
7539;SDS011;3811;49.006;12.076;2023-08-07T02:37:22;0.67;;;0.60;;
7539;SDS011;3811;49.006;12.076;2023-08-07T02:39:50;0.63;;;0.63;;
7539;SDS011;3811;49.006;12.076;2023-08-07T02:42:18;0.40;;;0.40;;
7539;SDS011;3811;49.006;12.076;2023-08-07T02:44:46;1.03;;;0.83;;
7539;SDS011;3811;49.006;12.076;2023-08-07T02:47:14;0.47;;;0.47;;
7539;SDS011;3811;49.006;12.076;2023-08-07T02:49:41;0.40;;;0.40;;
7539;SDS011;3811;49.006;12.076;2023-08-07T02:52:08;0.53;;;0.47;;
7539;SDS011;3811;49.006;12.076;2023-08-07T02:54:36;0.50;;;0.50;;
7539;SDS011;3811;49.006;12.076;2023-08-07T02:57:03;0.47;;;0.47;;
7539;SDS011;3811;49.006;12.076;2023-08-07T02:59:32;0.50;;;0.50;;
7539;SDS011;3811;49.006;12.076;2023-08-07T03:01:59;0.60;;;0.60;;
7539;SDS011;3811;49.006;12.076;2023-08-07T03:04:28;1.13;;;0.70;;
7539;SDS011;3811;49.006;12.076;2023-08-07T03:06:55;0.77;;;0.43;;
7539;SDS011;3811;49.006;12.076;2023-08-07T03:09:22;1.07;;;0.60;;
7539;SDS011;3811;49.006;12.076;2023-08-07T03:11:50;1.60;;;0.70;;
7539;SDS011;3811;49.006;12.076;2023-08-07T03:14:17;0.50;;;0.50;;
7539;SDS011;3811;49.006;12.076;2023-08-07T03:16:44;0.67;;;0.67;;
7539;SDS011;3811;49.006;12.076;2023-08-07T03:19:11;0.50;;;0.50;;
7539;SDS011;3811;49.006;12.076;2023-08-07T03:21:40;0.50;;;0.50;;
7539;SDS011;3811;49.006;12.076;2023-08-07T03:24:07;1.07;;;0.60;;
7539;SDS011;3811;49.006;12.076;2023-08-07T03:26:35;0.50;;;0.50;;
7539;SDS011;3811;49.006;12.076;2023-08-07T03:29:02;0.57;;;0.57;;
7539;SDS011;3811;49.006;12.076;2023-08-07T03:31:29;0.47;;;0.47;;
7539;SDS011;3811;49.006;12.076;2023-08-07T03:33:58;0.60;;;0.60;;
7539;SDS011;3811;49.006;12.076;2023-08-07T03:36:26;0.60;;;0.60;;
7539;SDS011;3811;49.006;12.076;2023-08-07T03:38:54;0.87;;;0.70;;
7539;SDS011;3811;49.006;12.076;2023-08-07T03:41:21;1.37;;;0.90;;
7539;SDS011;3811;49.006;12.076;2023-08-07T03:43:48;0.63;;;0.63;;
7539;SDS011;3811;49.006;12.076;2023-08-07T03:46:16;0.60;;;0.60;;
7539;SDS011;3811;49.006;12.076;2023-08-07T03:48:42;0.70;;;0.70;;
7539;SDS011;3811;49.006;12.076;2023-08-07T03:51:09;0.47;;;0.47;;
7539;SDS011;3811;49.006;12.076;2023-08-07T03:53:42;0.63;;;0.60;;
7539;SDS011;3811;49.006;12.076;2023-08-07T03:56:11;1.03;;;0.50;;
7539;SDS011;3811;49.006;12.076;2023-08-07T03:58:38;0.80;;;0.80;;
7539;SDS011;3811;49.006;12.076;2023-08-07T04:01:05;1.13;;;1.03;;
7539;SDS011;3811;49.006;12.076;2023-08-07T04:03:33;0.97;;;0.83;;
7539;SDS011;3811;49.006;12.076;2023-08-07T04:06:00;1.43;;;0.80;;
7539;SDS011;3811;49.006;12.076;2023-08-07T04:08:29;1.30;;;0.70;;
7539;SDS011;3811;49.006;12.076;2023-08-07T04:11:00;0.87;;;0.87;;
7539;SDS011;3811;49.006;12.076;2023-08-07T04:13:29;1.10;;;1.10;;
7539;SDS011;3811;49.006;12.076;2023-08-07T04:15:56;0.70;;;0.70;;
7539;SDS011;3811;49.006;12.076;2023-08-07T04:18:24;1.17;;;0.73;;
7539;SDS011;3811;49.006;12.076;2023-08-07T04:20:52;1.07;;;1.07;;
7539;SDS011;3811;49.006;12.076;2023-08-07T04:23:19;0.90;;;0.90;;
7539;SDS011;3811;49.006;12.076;2023-08-07T04:25:46;0.87;;;0.87;;
7539;SDS011;3811;49.006;12.076;2023-08-07T04:28:13;0.90;;;0.90;;
7539;SDS011;3811;49.006;12.076;2023-08-07T04:30:42;0.70;;;0.70;;
7539;SDS011;3811;49.006;12.076;2023-08-07T04:33:10;0.90;;;0.90;;
7539;SDS011;3811;49.006;12.076;2023-08-07T04:35:37;1.03;;;0.97;;
7539;SDS011;3811;49.006;12.076;2023-08-07T04:38:05;0.90;;;0.90;;
7539;SDS011;3811;49.006;12.076;2023-08-07T04:40:32;0.80;;;0.80;;
7539;SDS011;3811;49.006;12.076;2023-08-07T04:42:59;3.17;;;1.13;;
7539;SDS011;3811;49.006;12.076;2023-08-07T04:45:27;1.53;;;1.03;;
7539;SDS011;3811;49.006;12.076;2023-08-07T04:47:55;1.00;;;1.00;;
7539;SDS011;3811;49.006;12.076;2023-08-07T04:50:22;1.10;;;1.10;;
7539;SDS011;3811;49.006;12.076;2023-08-07T04:52:49;2.10;;;1.00;;
7539;SDS011;3811;49.006;12.076;2023-08-07T04:55:16;1.00;;;0.93;;
7539;SDS011;3811;49.006;12.076;2023-08-07T04:57:44;1.87;;;1.17;;
7539;SDS011;3811;49.006;12.076;2023-08-07T05:00:12;0.77;;;0.77;;
7539;SDS011;3811;49.006;12.076;2023-08-07T05:02:39;0.90;;;0.90;;
7539;SDS011;3811;49.006;12.076;2023-08-07T05:05:09;1.27;;;1.17;;
7539;SDS011;3811;49.006;12.076;2023-08-07T05:07:36;1.20;;;1.20;;
7539;SDS011;3811;49.006;12.076;2023-08-07T05:10:04;1.50;;;1.10;;
7539;SDS011;3811;49.006;12.076;2023-08-07T05:12:31;0.93;;;0.87;;
7539;SDS011;3811;49.006;12.076;2023-08-07T05:14:58;1.30;;;1.20;;
7539;SDS011;3811;49.006;12.076;2023-08-07T05:17:25;0.90;;;0.90;;
7539;SDS011;3811;49.006;12.076;2023-08-07T05:19:52;1.77;;;1.10;;
7539;SDS011;3811;49.006;12.076;2023-08-07T05:22:21;1.03;;;1.03;;
7539;SDS011;3811;49.006;12.076;2023-08-07T05:24:48;1.97;;;1.10;;
7539;SDS011;3811;49.006;12.076;2023-08-07T05:27:15;1.30;;;1.20;;
7539;SDS011;3811;49.006;12.076;2023-08-07T05:29:42;1.20;;;1.10;;
7539;SDS011;3811;49.006;12.076;2023-08-07T05:32:09;1.13;;;1.03;;
7539;SDS011;3811;49.006;12.076;2023-08-07T05:34:37;0.87;;;0.87;;
7539;SDS011;3811;49.006;12.076;2023-08-07T05:37:04;1.70;;;1.10;;
7539;SDS011;3811;49.006;12.076;2023-08-07T05:39:32;1.27;;;1.00;;
7539;SDS011;3811;49.006;12.076;2023-08-07T05:42:00;4.20;;;1.13;;
7539;SDS011;3811;49.006;12.076;2023-08-07T05:44:27;1.23;;;1.20;;
7539;SDS011;3811;49.006;12.076;2023-08-07T05:46:54;1.03;;;1.03;;
7539;SDS011;3811;49.006;12.076;2023-08-07T05:49:21;1.13;;;1.07;;
7539;SDS011;3811;49.006;12.076;2023-08-07T05:51:48;1.10;;;1.10;;
7539;SDS011;3811;49.006;12.076;2023-08-07T05:54:15;0.70;;;0.70;;
7539;SDS011;3811;49.006;12.076;2023-08-07T05:56:44;2.00;;;1.13;;
7539;SDS011;3811;49.006;12.076;2023-08-07T05:59:11;1.00;;;1.00;;
7539;SDS011;3811;49.006;12.076;2023-08-07T06:01:38;1.10;;;1.10;;
7539;SDS011;3811;49.006;12.076;2023-08-07T06:04:06;1.00;;;1.00;;
7539;SDS011;3811;49.006;12.076;2023-08-07T06:06:34;1.70;;;0.90;;
7539;SDS011;3811;49.006;12.076;2023-08-07T06:09:01;0.90;;;0.90;;
7539;SDS011;3811;49.006;12.076;2023-08-07T06:11:28;1.77;;;1.00;;
7539;SDS011;3811;49.006;12.076;2023-08-07T06:13:57;0.90;;;0.90;;
7539;SDS011;3811;49.006;12.076;2023-08-07T06:16:24;0.90;;;0.87;;
7539;SDS011;3811;49.006;12.076;2023-08-07T06:18:52;1.83;;;1.07;;
7539;SDS011;3811;49.006;12.076;2023-08-07T06:21:19;1.20;;;1.10;;
7539;SDS011;3811;49.006;12.076;2023-08-07T06:23:46;0.90;;;0.90;;
7539;SDS011;3811;49.006;12.076;2023-08-07T06:26:14;1.37;;;1.00;;
7539;SDS011;3811;49.006;12.076;2023-08-07T06:28:41;1.10;;;1.10;;
7539;SDS011;3811;49.006;12.076;2023-08-07T06:31:10;0.90;;;0.90;;
7539;SDS011;3811;49.006;12.076;2023-08-07T06:33:37;0.90;;;0.90;;
7539;SDS011;3811;49.006;12.076;2023-08-07T06:36:06;1.07;;;1.00;;
7539;SDS011;3811;49.006;12.076;2023-08-07T06:38:33;1.10;;;0.80;;
7539;SDS011;3811;49.006;12.076;2023-08-07T06:41:01;0.80;;;0.80;;
7539;SDS011;3811;49.006;12.076;2023-08-07T06:43:28;1.10;;;0.97;;
7539;SDS011;3811;49.006;12.076;2023-08-07T06:45:56;1.90;;;1.57;;
7539;SDS011;3811;49.006;12.076;2023-08-07T06:48:26;2.50;;;1.40;;
7539;SDS011;3811;49.006;12.076;2023-08-07T06:50:54;1.07;;;1.07;;
7539;SDS011;3811;49.006;12.076;2023-08-07T06:53:21;1.23;;;1.20;;
7539;SDS011;3811;49.006;12.076;2023-08-07T06:55:48;1.33;;;1.20;;
7539;SDS011;3811;49.006;12.076;2023-08-07T06:58:16;1.00;;;1.00;;
7539;SDS011;3811;49.006;12.076;2023-08-07T07:00:44;2.83;;;1.43;;
7539;SDS011;3811;49.006;12.076;2023-08-07T07:03:11;1.33;;;1.30;;
7539;SDS011;3811;49.006;12.076;2023-08-07T07:05:40;2.30;;;1.40;;
7539;SDS011;3811;49.006;12.076;2023-08-07T07:08:08;1.37;;;1.27;;
7539;SDS011;3811;49.006;12.076;2023-08-07T07:10:36;1.40;;;1.30;;
7539;SDS011;3811;49.006;12.076;2023-08-07T07:13:03;1.30;;;1.30;;
7539;SDS011;3811;49.006;12.076;2023-08-07T07:15:33;1.57;;;1.43;;
7539;SDS011;3811;49.006;12.076;2023-08-07T07:18:00;1.17;;;1.17;;
7539;SDS011;3811;49.006;12.076;2023-08-07T07:20:29;4.10;;;1.70;;
7539;SDS011;3811;49.006;12.076;2023-08-07T07:22:57;1.40;;;1.30;;
7539;SDS011;3811;49.006;12.076;2023-08-07T07:25:25;1.20;;;1.20;;
7539;SDS011;3811;49.006;12.076;2023-08-07T07:27:52;1.57;;;1.20;;
7539;SDS011;3811;49.006;12.076;2023-08-07T07:30:19;1.10;;;1.10;;
7539;SDS011;3811;49.006;12.076;2023-08-07T07:32:47;1.60;;;1.50;;
7539;SDS011;3811;49.006;12.076;2023-08-07T07:35:16;1.47;;;1.17;;
7539;SDS011;3811;49.006;12.076;2023-08-07T07:37:43;2.80;;;1.50;;
7539;SDS011;3811;49.006;12.076;2023-08-07T07:40:12;1.03;;;1.03;;
7539;SDS011;3811;49.006;12.076;2023-08-07T07:42:39;1.07;;;1.07;;
7539;SDS011;3811;49.006;12.076;2023-08-07T07:45:08;1.20;;;1.20;;
7539;SDS011;3811;49.006;12.076;2023-08-07T07:47:35;1.67;;;1.30;;
7539;SDS011;3811;49.006;12.076;2023-08-07T07:50:06;1.60;;;1.50;;
7539;SDS011;3811;49.006;12.076;2023-08-07T07:52:35;1.10;;;1.00;;
7539;SDS011;3811;49.006;12.076;2023-08-07T07:55:02;1.50;;;1.27;;
7539;SDS011;3811;49.006;12.076;2023-08-07T07:57:31;1.50;;;1.40;;
7539;SDS011;3811;49.006;12.076;2023-08-07T07:59:58;0.90;;;0.90;;
7539;SDS011;3811;49.006;12.076;2023-08-07T08:02:26;4.23;;;1.37;;
7539;SDS011;3811;49.006;12.076;2023-08-07T08:04:53;1.37;;;1.30;;
7539;SDS011;3811;49.006;12.076;2023-08-07T08:07:21;1.07;;;0.97;;
7539;SDS011;3811;49.006;12.076;2023-08-07T08:09:48;1.43;;;1.33;;
7539;SDS011;3811;49.006;12.076;2023-08-07T08:12:15;1.63;;;1.00;;
7539;SDS011;3811;49.006;12.076;2023-08-07T08:14:44;1.10;;;1.00;;
7539;SDS011;3811;49.006;12.076;2023-08-07T08:17:12;2.30;;;0.97;;
7539;SDS011;3811;49.006;12.076;2023-08-07T08:19:39;1.03;;;1.03;;
7539;SDS011;3811;49.006;12.076;2023-08-07T08:22:06;1.50;;;1.17;;
7539;SDS011;3811;49.006;12.076;2023-08-07T08:24:34;1.13;;;1.13;;
7539;SDS011;3811;49.006;12.076;2023-08-07T08:27:01;1.33;;;1.23;;
7539;SDS011;3811;49.006;12.076;2023-08-07T08:29:28;0.90;;;0.90;;
7539;SDS011;3811;49.006;12.076;2023-08-07T08:31:57;1.30;;;1.20;;
7539;SDS011;3811;49.006;12.076;2023-08-07T08:34:25;0.90;;;0.83;;
7539;SDS011;3811;49.006;12.076;2023-08-07T08:36:52;1.30;;;1.10;;
7539;SDS011;3811;49.006;12.076;2023-08-07T08:39:20;0.90;;;0.90;;
7539;SDS011;3811;49.006;12.076;2023-08-07T08:41:49;0.70;;;0.70;;
7539;SDS011;3811;49.006;12.076;2023-08-07T08:44:17;1.00;;;1.00;;
7539;SDS011;3811;49.006;12.076;2023-08-07T08:46:48;0.83;;;0.83;;
7539;SDS011;3811;49.006;12.076;2023-08-07T08:49:20;1.53;;;1.17;;
7539;SDS011;3811;49.006;12.076;2023-08-07T08:51:59;0.90;;;0.90;;
7539;SDS011;3811;49.006;12.076;2023-08-07T08:54:26;1.10;;;1.10;;
7539;SDS011;3811;49.006;12.076;2023-08-07T08:56:53;1.40;;;1.00;;
7539;SDS011;3811;49.006;12.076;2023-08-07T08:59:21;2.00;;;1.20;;
7539;SDS011;3811;49.006;12.076;2023-08-07T09:01:50;2.10;;;1.20;;
7539;SDS011;3811;49.006;12.076;2023-08-07T09:04:19;1.37;;;1.07;;
7539;SDS011;3811;49.006;12.076;2023-08-07T09:06:46;1.43;;;1.33;;
7539;SDS011;3811;49.006;12.076;2023-08-07T09:09:14;1.20;;;1.10;;
7539;SDS011;3811;49.006;12.076;2023-08-07T09:11:42;1.07;;;1.07;;
7539;SDS011;3811;49.006;12.076;2023-08-07T09:14:11;1.40;;;1.30;;
7539;SDS011;3811;49.006;12.076;2023-08-07T09:16:43;1.00;;;1.00;;
7539;SDS011;3811;49.006;12.076;2023-08-07T09:19:11;1.20;;;1.20;;
7539;SDS011;3811;49.006;12.076;2023-08-07T09:21:49;1.40;;;1.30;;
7539;SDS011;3811;49.006;12.076;2023-08-07T09:24:16;2.50;;;1.30;;
7539;SDS011;3811;49.006;12.076;2023-08-07T09:26:44;1.10;;;1.10;;
7539;SDS011;3811;49.006;12.076;2023-08-07T09:29:11;1.80;;;1.27;;
7539;SDS011;3811;49.006;12.076;2023-08-07T09:31:39;1.33;;;1.27;;
7539;SDS011;3811;49.006;12.076;2023-08-07T09:34:10;1.43;;;1.33;;
7539;SDS011;3811;49.006;12.076;2023-08-07T09:36:39;1.43;;;1.27;;
7539;SDS011;3811;49.006;12.076;2023-08-07T09:39:08;2.83;;;1.60;;
7539;SDS011;3811;49.006;12.076;2023-08-07T09:41:36;1.43;;;1.43;;
7539;SDS011;3811;49.006;12.076;2023-08-07T09:44:05;1.93;;;1.60;;
7539;SDS011;3811;49.006;12.076;2023-08-07T09:46:40;1.33;;;1.23;;
7539;SDS011;3811;49.006;12.076;2023-08-07T09:49:07;2.13;;;1.73;;
7539;SDS011;3811;49.006;12.076;2023-08-07T09:51:40;4.30;;;1.90;;
7539;SDS011;3811;49.006;12.076;2023-08-07T09:54:10;1.67;;;1.57;;
7539;SDS011;3811;49.006;12.076;2023-08-07T09:56:37;2.53;;;1.50;;
7539;SDS011;3811;49.006;12.076;2023-08-07T09:59:05;2.17;;;1.60;;
7539;SDS011;3811;49.006;12.076;2023-08-07T10:01:32;3.50;;;1.87;;
7539;SDS011;3811;49.006;12.076;2023-08-07T10:03:59;3.47;;;2.00;;
7539;SDS011;3811;49.006;12.076;2023-08-07T10:06:27;2.20;;;1.80;;
7539;SDS011;3811;49.006;12.076;2023-08-07T10:08:54;2.13;;;1.90;;
7539;SDS011;3811;49.006;12.076;2023-08-07T10:11:23;1.50;;;1.40;;
7539;SDS011;3811;49.006;12.076;2023-08-07T10:13:50;1.93;;;1.60;;
7539;SDS011;3811;49.006;12.076;2023-08-07T10:16:17;1.90;;;1.70;;
7539;SDS011;3811;49.006;12.076;2023-08-07T10:18:44;2.97;;;2.10;;
7539;SDS011;3811;49.006;12.076;2023-08-07T10:21:11;1.50;;;1.40;;
7539;SDS011;3811;49.006;12.076;2023-08-07T10:23:39;4.37;;;1.87;;
7539;SDS011;3811;49.006;12.076;2023-08-07T10:26:07;1.77;;;1.67;;
7539;SDS011;3811;49.006;12.076;2023-08-07T10:28:37;2.60;;;2.00;;
7539;SDS011;3811;49.006;12.076;2023-08-07T10:31:06;3.77;;;1.83;;
7539;SDS011;3811;49.006;12.076;2023-08-07T10:33:34;2.10;;;1.60;;
7539;SDS011;3811;49.006;12.076;2023-08-07T10:36:07;1.93;;;1.70;;
7539;SDS011;3811;49.006;12.076;2023-08-07T10:38:35;1.67;;;1.50;;
7539;SDS011;3811;49.006;12.076;2023-08-07T10:41:05;1.60;;;1.50;;
7539;SDS011;3811;49.006;12.076;2023-08-07T10:43:39;2.30;;;1.70;;
7539;SDS011;3811;49.006;12.076;2023-08-07T10:46:07;2.80;;;1.90;;
7539;SDS011;3811;49.006;12.076;2023-08-07T10:48:40;2.00;;;1.70;;
7539;SDS011;3811;49.006;12.076;2023-08-07T10:51:08;1.70;;;1.60;;
7539;SDS011;3811;49.006;12.076;2023-08-07T10:53:36;2.27;;;1.70;;
7539;SDS011;3811;49.006;12.076;2023-08-07T10:56:08;1.67;;;1.47;;
7539;SDS011;3811;49.006;12.076;2023-08-07T10:58:35;2.80;;;1.60;;
7539;SDS011;3811;49.006;12.076;2023-08-07T11:01:21;1.37;;;1.27;;
7539;SDS011;3811;49.006;12.076;2023-08-07T11:03:49;4.90;;;1.60;;
7539;SDS011;3811;49.006;12.076;2023-08-07T11:06:18;3.90;;;1.57;;
7539;SDS011;3811;49.006;12.076;2023-08-07T11:08:48;1.43;;;1.33;;
7539;SDS011;3811;49.006;12.076;2023-08-07T11:11:15;1.53;;;1.13;;
7539;SDS011;3811;49.006;12.076;2023-08-07T11:13:43;1.90;;;1.33;;
7539;SDS011;3811;49.006;12.076;2023-08-07T11:16:09;1.10;;;1.00;;
7539;SDS011;3811;49.006;12.076;2023-08-07T11:18:39;1.13;;;1.00;;
7539;SDS011;3811;49.006;12.076;2023-08-07T11:21:06;2.10;;;1.20;;
7539;SDS011;3811;49.006;12.076;2023-08-07T11:23:35;1.30;;;1.20;;
7539;SDS011;3811;49.006;12.076;2023-08-07T11:26:02;1.17;;;1.17;;
7539;SDS011;3811;49.006;12.076;2023-08-07T11:28:30;3.27;;;1.23;;
7539;SDS011;3811;49.006;12.076;2023-08-07T11:30:57;0.87;;;0.87;;
7539;SDS011;3811;49.006;12.076;2023-08-07T11:33:25;1.20;;;1.20;;
7539;SDS011;3811;49.006;12.076;2023-08-07T11:35:54;0.93;;;0.93;;
7539;SDS011;3811;49.006;12.076;2023-08-07T11:38:31;2.43;;;1.30;;
7539;SDS011;3811;49.006;12.076;2023-08-07T11:40:59;1.17;;;1.17;;
7539;SDS011;3811;49.006;12.076;2023-08-07T11:43:27;1.50;;;1.40;;
7539;SDS011;3811;49.006;12.076;2023-08-07T11:45:55;1.37;;;1.27;;
7539;SDS011;3811;49.006;12.076;2023-08-07T11:48:23;2.60;;;1.40;;
7539;SDS011;3811;49.006;12.076;2023-08-07T11:50:51;1.50;;;1.40;;
7539;SDS011;3811;49.006;12.076;2023-08-07T11:53:20;1.40;;;1.30;;
7539;SDS011;3811;49.006;12.076;2023-08-07T11:55:51;1.50;;;1.40;;
7539;SDS011;3811;49.006;12.076;2023-08-07T11:58:19;1.90;;;1.20;;
7539;SDS011;3811;49.006;12.076;2023-08-07T12:00:46;2.03;;;1.37;;
7539;SDS011;3811;49.006;12.076;2023-08-07T12:03:27;1.30;;;1.20;;
7539;SDS011;3811;49.006;12.076;2023-08-07T12:05:55;1.20;;;1.20;;
7539;SDS011;3811;49.006;12.076;2023-08-07T12:08:25;1.30;;;1.20;;
7539;SDS011;3811;49.006;12.076;2023-08-07T12:10:58;1.50;;;1.30;;
7539;SDS011;3811;49.006;12.076;2023-08-07T12:13:28;1.40;;;1.30;;
7539;SDS011;3811;49.006;12.076;2023-08-07T12:15:56;1.27;;;1.17;;
7539;SDS011;3811;49.006;12.076;2023-08-07T12:18:24;1.40;;;1.30;;
7539;SDS011;3811;49.006;12.076;2023-08-07T12:20:56;1.23;;;1.13;;
7539;SDS011;3811;49.006;12.076;2023-08-07T12:23:25;3.50;;;1.50;;
7539;SDS011;3811;49.006;12.076;2023-08-07T12:25:52;1.33;;;1.23;;
7539;SDS011;3811;49.006;12.076;2023-08-07T12:28:20;1.67;;;1.50;;
7539;SDS011;3811;49.006;12.076;2023-08-07T12:30:47;2.30;;;1.40;;
7539;SDS011;3811;49.006;12.076;2023-08-07T12:33:15;3.20;;;1.30;;
7539;SDS011;3811;49.006;12.076;2023-08-07T12:35:42;1.30;;;1.20;;
7539;SDS011;3811;49.006;12.076;2023-08-07T12:38:09;1.67;;;1.50;;
7539;SDS011;3811;49.006;12.076;2023-08-07T12:40:40;1.10;;;1.10;;
7539;SDS011;3811;49.006;12.076;2023-08-07T12:43:08;1.83;;;1.30;;
7539;SDS011;3811;49.006;12.076;2023-08-07T12:45:35;1.23;;;1.13;;
7539;SDS011;3811;49.006;12.076;2023-08-07T12:48:04;1.43;;;1.20;;
7539;SDS011;3811;49.006;12.076;2023-08-07T12:50:32;2.70;;;1.63;;
7539;SDS011;3811;49.006;12.076;2023-08-07T12:52:59;2.60;;;1.10;;
7539;SDS011;3811;49.006;12.076;2023-08-07T12:55:26;1.00;;;1.00;;
7539;SDS011;3811;49.006;12.076;2023-08-07T12:57:56;1.20;;;1.10;;
7539;SDS011;3811;49.006;12.076;2023-08-07T13:00:23;1.50;;;1.40;;
7539;SDS011;3811;49.006;12.076;2023-08-07T13:02:51;1.43;;;1.23;;
7539;SDS011;3811;49.006;12.076;2023-08-07T13:05:20;1.33;;;1.30;;
7539;SDS011;3811;49.006;12.076;2023-08-07T13:07:48;1.30;;;1.20;;
7539;SDS011;3811;49.006;12.076;2023-08-07T13:10:16;1.43;;;1.33;;
7539;SDS011;3811;49.006;12.076;2023-08-07T13:12:44;1.60;;;1.50;;
7539;SDS011;3811;49.006;12.076;2023-08-07T13:15:14;1.13;;;1.13;;
7539;SDS011;3811;49.006;12.076;2023-08-07T13:17:42;1.57;;;1.47;;
7539;SDS011;3811;49.006;12.076;2023-08-07T13:20:10;5.20;;;1.43;;
7539;SDS011;3811;49.006;12.076;2023-08-07T13:22:39;6.03;;;1.57;;
7539;SDS011;3811;49.006;12.076;2023-08-07T13:25:05;3.27;;;1.47;;
7539;SDS011;3811;49.006;12.076;2023-08-07T13:27:33;2.10;;;1.40;;
7539;SDS011;3811;49.006;12.076;2023-08-07T13:30:00;1.27;;;1.17;;
7539;SDS011;3811;49.006;12.076;2023-08-07T13:32:29;2.60;;;0.93;;
7539;SDS011;3811;49.006;12.076;2023-08-07T13:34:57;1.73;;;1.43;;
7539;SDS011;3811;49.006;12.076;2023-08-07T13:37:24;1.37;;;1.27;;
7539;SDS011;3811;49.006;12.076;2023-08-07T13:39:51;1.60;;;1.50;;
7539;SDS011;3811;49.006;12.076;2023-08-07T13:42:19;3.53;;;1.60;;
7539;SDS011;3811;49.006;12.076;2023-08-07T13:44:46;2.67;;;1.40;;
7539;SDS011;3811;49.006;12.076;2023-08-07T13:47:13;1.60;;;1.50;;
7539;SDS011;3811;49.006;12.076;2023-08-07T13:49:44;1.40;;;1.30;;
7539;SDS011;3811;49.006;12.076;2023-08-07T13:52:11;2.47;;;1.10;;
7539;SDS011;3811;49.006;12.076;2023-08-07T13:54:39;1.47;;;1.37;;
7539;SDS011;3811;49.006;12.076;2023-08-07T13:57:06;1.43;;;1.33;;
7539;SDS011;3811;49.006;12.076;2023-08-07T13:59:33;1.40;;;1.30;;
7539;SDS011;3811;49.006;12.076;2023-08-07T14:02:00;1.47;;;1.37;;
7539;SDS011;3811;49.006;12.076;2023-08-07T14:04:27;3.17;;;1.20;;
7539;SDS011;3811;49.006;12.076;2023-08-07T14:06:56;1.40;;;1.30;;
7539;SDS011;3811;49.006;12.076;2023-08-07T14:09:24;1.33;;;1.20;;
7539;SDS011;3811;49.006;12.076;2023-08-07T14:11:51;1.83;;;1.20;;
7539;SDS011;3811;49.006;12.076;2023-08-07T14:14:18;2.70;;;1.40;;
7539;SDS011;3811;49.006;12.076;2023-08-07T14:16:46;1.50;;;1.10;;
7539;SDS011;3811;49.006;12.076;2023-08-07T14:19:14;2.87;;;1.53;;
7539;SDS011;3811;49.006;12.076;2023-08-07T14:21:41;2.80;;;1.20;;
7539;SDS011;3811;49.006;12.076;2023-08-07T14:24:10;1.20;;;1.20;;
7539;SDS011;3811;49.006;12.076;2023-08-07T14:26:37;1.10;;;1.10;;
7539;SDS011;3811;49.006;12.076;2023-08-07T14:29:04;1.27;;;1.20;;
7539;SDS011;3811;49.006;12.076;2023-08-07T14:31:31;1.17;;;1.17;;
7539;SDS011;3811;49.006;12.076;2023-08-07T14:33:59;2.80;;;1.20;;
7539;SDS011;3811;49.006;12.076;2023-08-07T14:36:26;0.90;;;0.90;;
7539;SDS011;3811;49.006;12.076;2023-08-07T14:38:53;1.70;;;1.50;;
7539;SDS011;3811;49.006;12.076;2023-08-07T14:41:21;2.10;;;1.30;;
7539;SDS011;3811;49.006;12.076;2023-08-07T14:43:49;1.70;;;1.03;;
7539;SDS011;3811;49.006;12.076;2023-08-07T14:46:16;1.47;;;1.37;;
7539;SDS011;3811;49.006;12.076;2023-08-07T14:48:44;3.60;;;1.20;;
7539;SDS011;3811;49.006;12.076;2023-08-07T14:51:12;2.70;;;1.20;;
7539;SDS011;3811;49.006;12.076;2023-08-07T14:53:39;1.30;;;1.10;;
7539;SDS011;3811;49.006;12.076;2023-08-07T14:56:06;1.00;;;1.00;;
7539;SDS011;3811;49.006;12.076;2023-08-07T14:58:35;1.27;;;1.00;;
7539;SDS011;3811;49.006;12.076;2023-08-07T15:01:02;1.97;;;1.17;;
7539;SDS011;3811;49.006;12.076;2023-08-07T15:03:29;2.07;;;1.40;;
7539;SDS011;3811;49.006;12.076;2023-08-07T15:05:56;4.70;;;1.23;;